Portada
METAR-TAF:

METAR-TAF

Aeroports :

Ulan Bator, Mongòlia

latitud: 47-55N, longitud: 106-52E, altitud: 1306 m

Observació

L'informe es va fer fa 1 hora i 14 minuts, a les 22:00 UTC
Vent 4 kt amb direcció variable
Temperatura -31°C
Humitat 68%
Pressió 1023 hPa
Visibilitat: 8000 m

METAR: ZMUB 262200Z VRB02MPS 8000 NSC M31/M35 Q1023 NOSIG RMK QFE659.5 66 NT

Hora: 07:14 (23:14 UTC)

Pronòstic

L'informe es va fer fa 6 hores i 44 minuts, a les 16:30 UTC
Pronòstic vàlid del 26 a les 18 UTC al 27 a les 24 UTC
Vent 4 kt amb direcció variable
Visibilitat: 6000 m
Núvols disperses a una alçada de 10000 ft

TAF: ZMUB 261630Z 2618/2724 VRB02MPS 6000 SCT100 TNM34/2623Z TXM17/2707Z

Observacions i pronòstics meteorològics de més de 4000 aeroports (METAR i TAF).

Les estacions disponibles són els punts grocs i vermells al mapa.

Posi el ratolí al punt desitjat per veure el nom de l'estació.

Feu clic per veure les observacions i els pronòstics meteorològics.

Per canviar el mapa: feu clic els botons verds amb una creu de color negre per apropar; al botó verd amb un guió per allunyar la imatge; o en les fletxes verdes per a mapes adjacents.


METAR-TAF: